createdAt,value
2022-08-27T00:02:14.724Z,100668.06
2022-08-27T00:06:20.810Z,100668.47
2022-08-27T00:10:27.480Z,100675.44
2022-08-27T00:14:30.950Z,100673.44
2022-08-27T00:18:34.785Z,100672.63
2022-08-27T00:22:39.368Z,100668.41
2022-08-27T00:26:43.430Z,100672.28
2022-08-27T00:30:47.031Z,100671.47
2022-08-27T00:34:50.097Z,100656.06
2022-08-27T00:38:55.125Z,100666.03
2022-08-27T00:42:59.380Z,100664.88
2022-08-27T00:47:05.146Z,100663.16
2022-08-27T00:51:08.313Z,100663.66
2022-08-27T00:55:15.838Z,100661.38
2022-08-27T00:59:22.564Z,100662.19
2022-08-27T01:03:27.122Z,100653.66
2022-08-27T01:07:32.866Z,100651.31
2022-08-27T01:11:38.171Z,100648.56
2022-08-27T01:15:42.601Z,100638.75
2022-08-27T01:19:50.236Z,100639.59
2022-08-27T01:23:59.413Z,100642.59
2022-08-27T01:28:06.004Z,100633.34
2022-08-27T01:32:12.170Z,100641.97
2022-08-27T01:36:15.314Z,100640.19
2022-08-27T01:40:19.560Z,100635.25
2022-08-27T01:44:24.811Z,100636.28
2022-08-27T01:48:27.854Z,100636.63
2022-08-27T01:52:32.270Z,100632.75
2022-08-27T01:56:35.346Z,100638.28
2022-08-27T02:00:41.931Z,100636.69
2022-08-27T02:04:45.565Z,100624.69
2022-08-27T02:08:48.658Z,100628.56
2022-08-27T02:12:52.740Z,100628.25
2022-08-27T02:16:58.024Z,100626.63
2022-08-27T02:21:00.954Z,100631.09
2022-08-27T02:25:04.249Z,100620.00
2022-08-27T02:29:07.475Z,100621.94
2022-08-27T02:33:12.357Z,100623.88
2022-08-27T02:37:15.604Z,100633.28
2022-08-27T02:41:19.089Z,100628.81
2022-08-27T02:45:22.479Z,100626.38
2022-08-27T02:49:27.138Z,100623.03
2022-08-27T02:53:30.421Z,100616.66
2022-08-27T02:57:36.578Z,100626.75
2022-08-27T03:01:39.998Z,100616.31
2022-08-27T03:05:44.563Z,100616.00
2022-08-27T03:09:47.844Z,100606.03
2022-08-27T03:13:51.675Z,100607.31
2022-08-27T03:18:12.378Z,100604.28
2022-08-27T03:22:17.014Z,100614.25
2022-08-27T03:26:20.456Z,100613.59
2022-08-27T03:30:25.381Z,100615.56
2022-08-27T03:34:28.835Z,100616.72
2022-08-27T03:38:33.443Z,100607.56
2022-08-27T03:42:38.324Z,100614.19
2022-08-27T03:46:41.451Z,100608.81
2022-08-27T03:50:46.923Z,100611.19
2022-08-27T03:54:51.374Z,100611.00
2022-08-27T03:58:54.448Z,100603.13
2022-08-27T04:02:57.708Z,100617.22
2022-08-27T04:07:01.266Z,100616.38
2022-08-27T04:11:08.126Z,100620.88
2022-08-27T04:15:13.894Z,100616.72
2022-08-27T04:19:16.938Z,100619.72
2022-08-27T04:23:20.549Z,100624.75
2022-08-27T04:27:26.503Z,100630.34
2022-08-27T04:31:29.619Z,100624.75
2022-08-27T04:35:32.662Z,100632.47
2022-08-27T04:39:35.841Z,100633.94
2022-08-27T04:43:40.475Z,100630.94
2022-08-27T04:47:43.562Z,100642.00
2022-08-27T04:51:46.658Z,100636.69
2022-08-27T04:55:53.173Z,100641.56
2022-08-27T04:59:58.061Z,100636.91
2022-08-27T05:04:01.212Z,100642.44
2022-08-27T05:08:06.971Z,100633.13
2022-08-27T05:12:11.148Z,100646.97
2022-08-27T05:16:19.385Z,100645.22
2022-08-27T05:20:24.253Z,100647.53
2022-08-27T05:24:27.339Z,100644.19
2022-08-27T05:28:30.558Z,100647.78
2022-08-27T05:32:35.062Z,100640.84
2022-08-27T05:36:38.473Z,100640.19
2022-08-27T05:40:51.246Z,100653.09
2022-08-27T05:44:54.366Z,100655.78
2022-08-27T05:49:00.587Z,100661.69
2022-08-27T05:53:03.698Z,100660.81
2022-08-27T05:57:07.014Z,100658.53
2022-08-27T06:01:10.752Z,100665.56
2022-08-27T06:05:15.947Z,100661.13
2022-08-27T06:09:21.970Z,100669.00
2022-08-27T06:13:25.381Z,100660.47
2022-08-27T06:17:30.043Z,100659.56
2022-08-27T06:21:35.055Z,100669.94
2022-08-27T06:25:41.937Z,100672.88
2022-08-27T06:29:46.027Z,100665.25
2022-08-27T06:33:50.851Z,100660.81
2022-08-27T06:37:55.543Z,100655.00
2022-08-27T06:41:59.661Z,100665.31
2022-08-27T06:46:12.042Z,100660.38
2022-08-27T06:50:19.370Z,100662.13
2022-08-27T06:54:24.683Z,100659.22
2022-08-27T06:58:27.837Z,100660.28
2022-08-27T07:02:31.858Z,100661.00
2022-08-27T07:06:36.083Z,100657.38
2022-08-27T07:10:40.634Z,100651.41
2022-08-27T07:14:43.786Z,100653.41
2022-08-27T07:18:47.850Z,100662.28
2022-08-27T07:22:54.114Z,100667.56
2022-08-27T07:26:59.024Z,100667.13
2022-08-27T07:31:02.376Z,100674.59
2022-08-27T07:35:09.508Z,100672.53
2022-08-27T07:39:14.032Z,100677.03
2022-08-27T07:43:35.975Z,100676.69
2022-08-27T07:47:39.127Z,100676.09
2022-08-27T07:51:42.250Z,100675.16
2022-08-27T07:55:45.516Z,100682.88
2022-08-27T07:59:49.995Z,100682.06
2022-08-27T08:03:53.169Z,100688.25
2022-08-27T08:07:56.816Z,100688.41
2022-08-27T08:11:59.918Z,100683.44
2022-08-27T08:16:06.142Z,100684.94
2022-08-27T08:20:27.502Z,100691.94
2022-08-27T08:24:35.301Z,100701.31
2022-08-27T08:28:38.750Z,100700.00
2022-08-27T08:32:44.114Z,100699.09
2022-08-27T08:36:52.501Z,100703.59
2022-08-27T08:40:57.691Z,100709.72
2022-08-27T08:45:03.653Z,100707.34
2022-08-27T08:49:16.523Z,100704.09
2022-08-27T08:53:32.504Z,100708.38
2022-08-27T08:57:40.699Z,100714.44
2022-08-27T09:01:45.453Z,100713.41
2022-08-27T09:05:58.424Z,100716.56
2022-08-27T09:10:11.676Z,100705.75
2022-08-27T09:14:24.035Z,100714.94
2022-08-27T09:18:27.966Z,100713.16
2022-08-27T09:22:41.944Z,100706.75
2022-08-27T09:26:46.061Z,100699.00
2022-08-27T09:30:49.143Z,100699.53
2022-08-27T09:34:52.918Z,100696.25
2022-08-27T09:39:02.383Z,100702.63
2022-08-27T09:43:10.022Z,100700.66
2022-08-27T09:47:16.265Z,100693.03
2022-08-27T09:51:22.810Z,100698.09
2022-08-27T09:55:41.161Z,100702.00
2022-08-27T09:59:54.132Z,100700.59
2022-08-27T10:04:06.309Z,100698.63
2022-08-27T10:08:23.420Z,100701.44
2022-08-27T10:12:34.205Z,100699.91
2022-08-27T10:16:53.017Z,100695.13
2022-08-27T10:21:08.377Z,100700.09
2022-08-27T10:25:24.018Z,100686.31
2022-08-27T10:29:39.539Z,100702.47
2022-08-27T10:33:59.387Z,100689.38
2022-08-27T10:38:11.691Z,100685.63
2022-08-27T10:42:22.634Z,100693.53
2022-08-27T10:46:50.662Z,100686.78
2022-08-27T10:51:00.610Z,100692.53
2022-08-27T10:55:12.805Z,100698.66
2022-08-27T10:59:25.458Z,100687.41
2022-08-27T11:03:37.065Z,100694.09
2022-08-27T11:08:05.497Z,100696.78
2022-08-27T11:23:23.389Z,100689.06
2022-08-27T11:27:30.257Z,100676.88
2022-08-27T11:31:38.275Z,100673.44
2022-08-27T11:35:52.487Z,100674.66
2022-08-27T11:40:20.274Z,100663.03
2022-08-27T11:44:26.635Z,100673.88
2022-08-27T11:48:31.747Z,100681.41
2022-08-27T11:52:39.496Z,100675.53
2022-08-27T11:56:45.043Z,100674.66
2022-08-27T12:00:49.401Z,100677.66
2022-08-27T12:04:54.614Z,100664.06
2022-08-27T12:09:13.998Z,100674.69
2022-08-27T12:13:26.212Z,100666.63
2022-08-27T12:17:36.802Z,100664.66
2022-08-27T12:21:52.986Z,100665.22
2022-08-27T12:25:58.145Z,100670.41
2022-08-27T12:30:07.743Z,100672.38
2022-08-27T12:34:16.422Z,100670.47
2022-08-27T12:38:37.855Z,100672.75
2022-08-27T12:42:41.167Z,100666.84
2022-08-27T12:46:49.841Z,100664.16
2022-08-27T12:50:55.917Z,100661.63
2022-08-27T12:55:11.097Z,100653.47
2022-08-27T12:59:37.038Z,100661.31
2022-08-27T13:03:45.707Z,100653.78
2022-08-27T13:07:51.063Z,100650.16
2022-08-27T13:11:56.782Z,100655.19
2022-08-27T13:16:03.508Z,100644.34
2022-08-27T13:20:16.885Z,100641.78
2022-08-27T13:24:22.595Z,100644.38
2022-08-27T13:28:28.232Z,100651.59
2022-08-27T13:36:38.042Z,100642.38
2022-08-27T13:40:55.287Z,100645.16
2022-08-27T13:45:06.254Z,100640.72
2022-08-27T13:49:18.588Z,100639.09
2022-08-27T13:53:44.041Z,100635.75
2022-08-27T13:57:49.566Z,100633.72
2022-08-27T14:01:57.245Z,100642.78
2022-08-27T14:06:01.116Z,100641.38
2022-08-27T14:10:23.095Z,100631.66
2022-08-27T14:14:26.538Z,100637.91
2022-08-27T14:18:57.385Z,100626.50
2022-08-27T14:22:57.532Z,100632.56
2022-08-27T14:27:09.650Z,100633.88
2022-08-27T14:31:13.530Z,100633.06
2022-08-27T14:35:24.935Z,100629.97
2022-08-27T14:39:28.555Z,100628.47
2022-08-27T14:43:33.302Z,100636.38
2022-08-27T14:47:38.570Z,100625.03
2022-08-27T14:51:44.236Z,100625.63
2022-08-27T14:55:51.929Z,100628.97
2022-08-27T14:59:56.696Z,100624.53
2022-08-27T15:03:59.969Z,100625.59
2022-08-27T15:08:04.389Z,100623.97
2022-08-27T15:12:08.119Z,100627.84
2022-08-27T15:16:29.053Z,100622.31
2022-08-27T15:20:32.765Z,100627.34
2022-08-27T15:24:42.266Z,100623.72
2022-08-27T15:28:45.567Z,100631.22
2022-08-27T15:32:50.159Z,100630.13
2022-08-27T15:36:53.521Z,100629.53
2022-08-27T15:40:56.896Z,100626.72
2022-08-27T15:45:00.015Z,100633.41
2022-08-27T15:49:05.671Z,100624.53
2022-08-27T15:53:10.281Z,100622.34
2022-08-27T15:57:13.429Z,100623.44
2022-08-27T16:01:20.576Z,100624.31
2022-08-27T16:05:25.889Z,100621.22
2022-08-27T16:09:29.480Z,100615.97
2022-08-27T16:13:32.835Z,100620.09
2022-08-27T16:17:36.922Z,100621.22
2022-08-27T16:21:41.650Z,100617.34
2022-08-27T16:25:44.659Z,100621.53
2022-08-27T16:29:47.684Z,100621.53
2022-08-27T16:33:50.942Z,100619.88
2022-08-27T16:37:55.307Z,100610.41
2022-08-27T16:41:58.430Z,100618.22
2022-08-27T16:46:03.498Z,100610.16
2022-08-27T16:50:26.325Z,100611.25
2022-08-27T16:54:31.244Z,100605.97
2022-08-27T16:58:34.349Z,100613.47
2022-08-27T17:02:38.141Z,100609.03
2022-08-27T17:06:42.208Z,100611.53
2022-08-27T17:10:49.126Z,100605.16
2022-08-27T17:14:55.939Z,100612.06
2022-08-27T17:18:59.719Z,100614.03
2022-08-27T17:23:03.797Z,100616.28
2022-08-27T17:27:08.322Z,100611.81
2022-08-27T17:31:13.791Z,100612.94
2022-08-27T17:35:17.530Z,100617.66
2022-08-27T17:39:21.573Z,100614.88
2022-08-27T17:43:26.878Z,100609.03
2022-08-27T17:47:30.039Z,100608.44
2022-08-27T17:51:33.334Z,100611.81
2022-08-27T17:55:37.151Z,100612.34
2022-08-27T17:59:41.676Z,100609.56
2022-08-27T18:03:47.982Z,100617.88
2022-08-27T18:07:52.571Z,100619.00
2022-08-27T18:11:58.111Z,100620.41
2022-08-27T18:16:02.961Z,100631.50
2022-08-27T18:20:08.623Z,100637.59
2022-08-27T18:24:13.471Z,100634.25
2022-08-27T18:28:19.079Z,100637.84
2022-08-27T18:32:23.754Z,100634.78
2022-08-27T18:36:26.857Z,100641.75
2022-08-27T18:40:32.974Z,100641.72
2022-08-27T18:44:38.855Z,100650.59
2022-08-27T18:48:43.657Z,100648.38
2022-08-27T18:52:47.383Z,100653.38
2022-08-27T18:56:50.513Z,100656.69
2022-08-27T19:00:56.861Z,100663.38
2022-08-27T19:05:01.659Z,100656.41
2022-08-27T19:09:05.369Z,100654.72
2022-08-27T19:13:08.498Z,100663.63
2022-08-27T19:17:24.116Z,100661.69
2022-08-27T19:21:28.470Z,100665.56
2022-08-27T19:25:31.811Z,100668.28
2022-08-27T19:29:37.675Z,100677.47
2022-08-27T19:33:40.819Z,100676.06
2022-08-27T19:37:52.933Z,100687.16
2022-08-27T19:41:56.570Z,100684.94
2022-08-27T19:46:02.872Z,100685.44
2022-08-27T19:50:08.614Z,100684.91
2022-08-27T19:54:13.017Z,100692.09
2022-08-27T19:58:18.315Z,100692.13
2022-08-27T20:02:21.356Z,100685.44
2022-08-27T20:06:24.673Z,100691.53
2022-08-27T20:10:36.102Z,100689.84
2022-08-27T20:14:40.131Z,100691.47
2022-08-27T20:18:45.185Z,100689.19
2022-08-27T20:22:48.208Z,100689.16
2022-08-27T20:26:53.247Z,100688.63
2022-08-27T20:30:57.468Z,100688.63
2022-08-27T20:35:00.489Z,100688.63
2022-08-27T20:39:05.162Z,100694.19
2022-08-27T20:43:09.694Z,100699.47
2022-08-27T20:47:12.745Z,100703.59
2022-08-27T20:51:15.780Z,100708.50
2022-08-27T20:55:19.859Z,100705.22
2022-08-27T20:59:41.581Z,100708.56
2022-08-27T21:03:44.851Z,100704.69
2022-08-27T21:07:48.943Z,100705.13
2022-08-27T21:11:51.975Z,100712.63
2022-08-27T21:15:56.880Z,100711.22
2022-08-27T21:19:59.971Z,100713.09
2022-08-27T21:24:03.366Z,100715.31
2022-08-27T21:28:07.562Z,100725.59
2022-08-27T21:32:12.136Z,100721.66
2022-08-27T21:36:15.288Z,100726.66
2022-08-27T21:40:20.145Z,100728.03
2022-08-27T21:44:23.350Z,100724.63
2022-08-27T21:48:28.502Z,100729.34
2022-08-27T21:52:31.475Z,100721.63
2022-08-27T21:56:34.502Z,100731.00
2022-08-27T22:00:43.820Z,100733.22
2022-08-27T22:04:48.585Z,100727.16
2022-08-27T22:08:51.712Z,100732.72
2022-08-27T22:12:55.746Z,100732.72
2022-08-27T22:17:04.077Z,100727.16
2022-08-27T22:21:08.530Z,100721.09
2022-08-27T22:25:12.350Z,100715.53
2022-08-27T22:29:16.435Z,100721.09
2022-08-27T22:33:19.626Z,100706.13
2022-08-27T22:37:24.055Z,100719.06
2022-08-27T22:41:27.254Z,100717.66
2022-08-27T22:45:30.861Z,100725.69
2022-08-27T22:49:33.979Z,100725.13
2022-08-27T22:53:39.375Z,100724.28
2022-08-27T22:57:42.960Z,100728.66
2022-08-27T23:01:46.110Z,100725.59
2022-08-27T23:05:49.224Z,100730.25
2022-08-27T23:09:53.658Z,100736.25
2022-08-27T23:13:56.859Z,100737.00
2022-08-27T23:18:00.648Z,100733.88
2022-08-27T23:22:07.124Z,100732.97
2022-08-27T23:26:29.231Z,100728.16
2022-08-27T23:30:33.580Z,100736.44
2022-08-27T23:34:36.753Z,100737.19
2022-08-27T23:38:39.842Z,100742.38
2022-08-27T23:42:46.050Z,100734.56
2022-08-27T23:46:49.524Z,100737.34
2022-08-27T23:50:53.704Z,100737.28
2022-08-27T23:54:56.758Z,100739.94
2022-08-27T23:59:01.114Z,100732.06
